Time;durP1;ratioP1;P1;durP2;ratioP2;P2;SDS_P1;SDS_P2;PMS_P1;PMS_P2;Temp;Humidity;BMP_temperature;BMP_pressure;BME280_temperature;BME280_humidity;BME280_pressure;Samples;Min_cycle;Max_cycle;Signal;HPM_P1;HPM_P2
2023/03/15 00:00:59;;;;;;;0.6;0.6;;;;;;;;;;;;;
2023/03/15 00:03:26;;;;;;;0.5;0.4;;;;;;;;;;;;;
2023/03/15 00:05:54;;;;;;;0.5;0.5;;;;;;;;;;;;;
2023/03/15 00:08:23;;;;;;;0.5;0.5;;;;;;;;;;;;;
2023/03/15 00:10:55;;;;;;;0.8;0.5;;;;;;;;;;;;;
2023/03/15 00:13:20;;;;;;;0.5;0.3;;;;;;;;;;;;;
2023/03/15 00:15:55;;;;;;;0.3;0.3;;;;;;;;;;;;;
2023/03/15 00:18:24;;;;;;;1.2;1;;;;;;;;;;;;;
2023/03/15 00:20:53;;;;;;;1.2;1.1;;;;;;;;;;;;;
2023/03/15 00:23:19;;;;;;;0.8;0.8;;;;;;;;;;;;;
2023/03/15 00:25:44;;;;;;;1.5;1.4;;;;;;;;;;;;;
2023/03/15 00:28:09;;;;;;;1.7;1.6;;;;;;;;;;;;;
2023/03/15 00:30:35;;;;;;;1.5;1.1;;;;;;;;;;;;;
2023/03/15 00:33:00;;;;;;;0.7;0.7;;;;;;;;;;;;;
2023/03/15 00:35:32;;;;;;;0.8;0.7;;;;;;;;;;;;;
2023/03/15 00:37:56;;;;;;;0.8;0.4;;;;;;;;;;;;;
2023/03/15 00:40:22;;;;;;;0.7;0.5;;;;;;;;;;;;;
2023/03/15 00:42:49;;;;;;;0.9;0.5;;;;;;;;;;;;;
2023/03/15 00:45:12;;;;;;;0.2;0.2;;;;;;;;;;;;;
2023/03/15 00:47:38;;;;;;;0.6;0.4;;;;;;;;;;;;;
2023/03/15 00:50:03;;;;;;;0.3;0.3;;;;;;;;;;;;;
2023/03/15 00:52:28;;;;;;;0.7;0.3;;;;;;;;;;;;;
2023/03/15 00:54:54;;;;;;;0.4;0.3;;;;;;;;;;;;;
2023/03/15 00:57:19;;;;;;;0.7;0.4;;;;;;;;;;;;;
2023/03/15 00:59:45;;;;;;;0.4;0.4;;;;;;;;;;;;;
2023/03/15 01:02:10;;;;;;;0.5;0.5;;;;;;;;;;;;;
2023/03/15 01:04:36;;;;;;;1.1;0.7;;;;;;;;;;;;;
2023/03/15 01:07:01;;;;;;;1.1;0.9;;;;;;;;;;;;;
2023/03/15 01:09:27;;;;;;;1.7;0.8;;;;;;;;;;;;;
2023/03/15 01:11:52;;;;;;;0.8;0.8;;;;;;;;;;;;;
2023/03/15 01:14:19;;;;;;;0.7;0.7;;;;;;;;;;;;;
2023/03/15 01:16:44;;;;;;;0.6;0.6;;;;;;;;;;;;;
2023/03/15 01:19:09;;;;;;;1;0.7;;;;;;;;;;;;;
2023/03/15 01:21:34;;;;;;;0.8;0.8;;;;;;;;;;;;;
2023/03/15 01:24:01;;;;;;;0.6;0.6;;;;;;;;;;;;;
2023/03/15 01:26:26;;;;;;;2.5;1.2;;;;;;;;;;;;;
2023/03/15 01:28:51;;;;;;;3.5;2.7;;;;;;;;;;;;;
2023/03/15 01:31:16;;;;;;;1.9;1;;;;;;;;;;;;;
2023/03/15 01:33:42;;;;;;;1.6;0.9;;;;;;;;;;;;;
2023/03/15 01:36:07;;;;;;;1.6;0.9;;;;;;;;;;;;;
2023/03/15 01:38:33;;;;;;;1.2;0.9;;;;;;;;;;;;;
2023/03/15 01:40:58;;;;;;;0.6;0.6;;;;;;;;;;;;;
2023/03/15 01:43:32;;;;;;;0.8;0.5;;;;;;;;;;;;;
2023/03/15 01:45:57;;;;;;;0.6;0.5;;;;;;;;;;;;;
2023/03/15 01:48:22;;;;;;;0.4;0.4;;;;;;;;;;;;;
2023/03/15 01:50:47;;;;;;;0.8;0.4;;;;;;;;;;;;;
2023/03/15 01:53:13;;;;;;;0.8;0.5;;;;;;;;;;;;;
2023/03/15 01:55:40;;;;;;;0.4;0.4;;;;;;;;;;;;;
2023/03/15 01:58:07;;;;;;;0.8;0.6;;;;;;;;;;;;;
2023/03/15 02:00:31;;;;;;;1;0.6;;;;;;;;;;;;;
2023/03/15 02:02:57;;;;;;;0.4;0.4;;;;;;;;;;;;;
2023/03/15 02:05:23;;;;;;;0.3;0.3;;;;;;;;;;;;;
2023/03/15 02:07:48;;;;;;;0.7;0.4;;;;;;;;;;;;;
2023/03/15 02:10:17;;;;;;;0.2;0.2;;;;;;;;;;;;;
2023/03/15 02:12:44;;;;;;;0.4;0.2;;;;;;;;;;;;;
2023/03/15 02:15:21;;;;;;;0.1;0.1;;;;;;;;;;;;;
2023/03/15 02:17:46;;;;;;;0.1;0.1;;;;;;;;;;;;;
2023/03/15 02:20:11;;;;;;;0.2;0.2;;;;;;;;;;;;;
2023/03/15 02:22:37;;;;;;;0.1;0.1;;;;;;;;;;;;;
2023/03/15 02:25:02;;;;;;;0.1;0.1;;;;;;;;;;;;;
2023/03/15 02:27:27;;;;;;;0.1;0.1;;;;;;;;;;;;;
2023/03/15 02:29:54;;;;;;;0.3;0.3;;;;;;;;;;;;;
2023/03/15 02:32:19;;;;;;;0.1;0.1;;;;;;;;;;;;;
2023/03/15 02:34:44;;;;;;;0.7;0.2;;;;;;;;;;;;;
2023/03/15 02:37:33;;;;;;;0.2;0.2;;;;;;;;;;;;;
2023/03/15 02:39:55;;;;;;;0.2;0.2;;;;;;;;;;;;;
2023/03/15 02:42:22;;;;;;;0.2;0.2;;;;;;;;;;;;;
2023/03/15 02:44:46;;;;;;;0.2;0.2;;;;;;;;;;;;;
2023/03/15 02:47:12;;;;;;;0.2;0.2;;;;;;;;;;;;;
2023/03/15 02:49:37;;;;;;;0.5;0.2;;;;;;;;;;;;;
2023/03/15 02:52:02;;;;;;;0.4;0.2;;;;;;;;;;;;;
2023/03/15 02:54:28;;;;;;;0.2;0.2;;;;;;;;;;;;;
2023/03/15 02:56:53;;;;;;;0.4;0.2;;;;;;;;;;;;;
2023/03/15 02:59:18;;;;;;;0.2;0.2;;;;;;;;;;;;;
2023/03/15 03:01:44;;;;;;;0.2;0.2;;;;;;;;;;;;;
2023/03/15 03:04:08;;;;;;;0.2;0.2;;;;;;;;;;;;;
2023/03/15 03:06:34;;;;;;;0.7;0.2;;;;;;;;;;;;;
2023/03/15 03:09:03;;;;;;;0.2;0.2;;;;;;;;;;;;;
2023/03/15 03:11:24;;;;;;;0.2;0.2;;;;;;;;;;;;;
2023/03/15 03:13:50;;;;;;;0.3;0.3;;;;;;;;;;;;;
2023/03/15 03:16:14;;;;;;;0.4;0.3;;;;;;;;;;;;;
2023/03/15 03:18:41;;;;;;;0.3;0.2;;;;;;;;;;;;;
2023/03/15 03:21:06;;;;;;;0.3;0.2;;;;;;;;;;;;;
2023/03/15 03:23:32;;;;;;;0.5;0.3;;;;;;;;;;;;;
2023/03/15 03:25:57;;;;;;;0.2;0.2;;;;;;;;;;;;;
2023/03/15 03:28:24;;;;;;;0.3;0.2;;;;;;;;;;;;;
2023/03/15 03:30:49;;;;;;;0.2;0.2;;;;;;;;;;;;;
2023/03/15 03:33:15;;;;;;;0.3;0.1;;;;;;;;;;;;;
2023/03/15 03:35:41;;;;;;;0.1;0.1;;;;;;;;;;;;;
2023/03/15 03:38:08;;;;;;;0.3;0.3;;;;;;;;;;;;;
2023/03/15 03:40:33;;;;;;;0.5;0.5;;;;;;;;;;;;;
2023/03/15 03:42:59;;;;;;;0.6;0.5;;;;;;;;;;;;;
2023/03/15 03:45:24;;;;;;;1.6;1.1;;;;;;;;;;;;;
2023/03/15 03:47:51;;;;;;;1.4;1;;;;;;;;;;;;;
2023/03/15 03:50:15;;;;;;;1.2;0.9;;;;;;;;;;;;;
2023/03/15 03:52:44;;;;;;;0.5;0.3;;;;;;;;;;;;;
2023/03/15 03:55:12;;;;;;;1;0.2;;;;;;;;;;;;;
2023/03/15 03:57:34;;;;;;;0.2;0.2;;;;;;;;;;;;;
2023/03/15 04:00:02;;;;;;;0.2;0.2;;;;;;;;;;;;;
2023/03/15 04:02:32;;;;;;;0.3;0.3;;;;;;;2.91;92.86035;934.0078;;;;
2023/03/15 04:05:02;;;;;;;0.2;0.2;;;;;;;2.87;91.78516;934.0319;;;;
2023/03/15 04:07:27;;;;;;;0.3;0.3;;;;;;;2.83;91.54297;934.1164;;;;
2023/03/15 04:09:56;;;;;;;0.2;0.2;;;;;;;3;91.62109;934.0374;;;;
2023/03/15 04:12:21;;;;;;;0.4;0.4;;;;;;;3.04;90.24023;934.145;;;;
2023/03/15 04:14:50;;;;;;;0.6;0.4;;;;;;;3.09;89.89258;934.1914;;;;
2023/03/15 04:17:15;;;;;;;0.3;0.3;;;;;;;3.16;89.07715;934.1071;;;;
2023/03/15 04:19:47;;;;;;;0.3;0.3;;;;;;;3.24;87.2627;934.2787;;;;
2023/03/15 04:22:14;;;;;;;0.6;0.6;;;;;;;3.22;86.80957;934.4514;;;;
2023/03/15 04:24:38;;;;;;;0.6;0.6;;;;;;;3.17;86.92383;934.452;;;;
2023/03/15 04:27:06;;;;;;;0.5;0.5;;;;;;;2.96;87.24023;934.4805;;;;
2023/03/15 04:29:31;;;;;;;0.6;0.6;;;;;;;2.76;87.59082;934.5753;;;;
2023/03/15 04:32:00;;;;;;;0.7;0.7;;;;;;;2.69;88.78809;934.5417;;;;
2023/03/15 04:34:27;;;;;;;0.8;0.8;;;;;;;2.61;89.16309;934.6395;;;;
2023/03/15 04:36:53;;;;;;;0.9;0.9;;;;;;;2.52;89.41309;934.6284;;;;
2023/03/15 04:39:14;;;;;;;0.7;0.7;;;;;;;2.35;89.04102;934.7056;;;;
2023/03/15 04:41:39;;;;;;;0.8;0.8;;;;;;;2.22;89.36035;934.757;;;;
2023/03/15 04:44:06;;;;;;;0.8;0.8;;;;;;;2.21;89.3916;934.7684;;;;
2023/03/15 04:46:32;;;;;;;0.7;0.7;;;;;;;2.17;89.29395;934.8083;;;;
2023/03/15 04:48:58;;;;;;;0.8;0.8;;;;;;;2.17;89.39551;934.7957;;;;
2023/03/15 04:51:24;;;;;;;0.9;0.9;;;;;;;2.22;88.80176;934.9604;;;;
2023/03/15 04:53:51;;;;;;;1;0.7;;;;;;;2.33;87.60352;934.976;;;;
2023/03/15 04:56:16;;;;;;;0.7;0.6;;;;;;;2.52;86.62109;935.0723;;;;
2023/03/15 04:58:44;;;;;;;0.7;0.7;;;;;;;2.25;84.95508;935.0887;;;;
2023/03/15 05:01:10;;;;;;;0.7;0.7;;;;;;;2.26;87.33105;935.0954;;;;
2023/03/15 05:03:35;;;;;;;1.7;0.8;;;;;;;2.21;87.51074;935.2458;;;;
2023/03/15 05:06:06;;;;;;;0.8;0.8;;;;;;;2.33;88.19727;935.3389;;;;
2023/03/15 05:08:29;;;;;;;0.9;0.9;;;;;;;2.47;87.90039;935.3276;;;;
2023/03/15 05:10:56;;;;;;;0.8;0.8;;;;;;;2.42;87.73438;935.3959;;;;
2023/03/15 05:13:21;;;;;;;1.1;1;;;;;;;2.38;87.42285;935.3736;;;;
2023/03/15 05:15:52;;;;;;;1;0.9;;;;;;;2.24;87.74023;935.4489;;;;
2023/03/15 05:18:22;;;;;;;1.1;1;;;;;;;2.42;87.94727;935.5342;;;;
2023/03/15 05:20:47;;;;;;;1.8;1;;;;;;;2.38;86.76172;935.6548;;;;
2023/03/15 05:23:15;;;;;;;1.6;1.3;;;;;;;2.24;85.13281;935.6438;;;;
2023/03/15 05:25:47;;;;;;;1;1;;;;;;;2.34;86.75195;935.6439;;;;
2023/03/15 05:28:17;;;;;;;1.4;1.3;;;;;;;2.38;85.71973;935.7028;;;;
2023/03/15 05:30:37;;;;;;;1.6;1.2;;;;;;;2.61;85.27441;935.6973;;;;
2023/03/15 05:33:04;;;;;;;1.2;1;;;;;;;2.53;85.08789;935.8074;;;;
2023/03/15 05:35:28;;;;;;;2.9;1.1;;;;;;;2.33;84.64648;935.9023;;;;
2023/03/15 05:37:56;;;;;;;1;1;;;;;;;2.05;85.06055;935.8367;;;;
2023/03/15 05:40:22;;;;;;;2.3;1.1;;;;;;;2.02;85.44727;936.0108;;;;
2023/03/15 05:42:49;;;;;;;1.4;0.9;;;;;;;1.83;84.55859;936.0073;;;;
2023/03/15 05:45:14;;;;;;;0.8;0.7;;;;;;;1.71;84.84473;936.1756;;;;
2023/03/15 05:47:42;;;;;;;1.1;0.8;;;;;;;1.78;85.6084;936.2097;;;;
2023/03/15 05:50:07;;;;;;;1.7;1.1;;;;;;;1.85;86.45117;936.274;;;;
2023/03/15 05:52:40;;;;;;;2.8;1.2;;;;;;;1.69;86.17383;936.3351;;;;
2023/03/15 05:55:11;;;;;;;2.1;1.5;;;;;;;1.63;87.10938;936.4573;;;;
2023/03/15 05:57:44;;;;;;;2;1.5;;;;;;;1.57;87.13184;936.5151;;;;
2023/03/15 06:00:17;;;;;;;2.2;1.7;;;;;;;1.7;87.18262;936.5128;;;;
2023/03/15 06:02:45;;;;;;;3.4;1.6;;;;;;;1.84;86.44043;936.5287;;;;
2023/03/15 06:05:10;;;;;;;2.9;1.6;;;;;;;1.8;86.45313;936.4637;;;;
2023/03/15 06:07:40;;;;;;;3.4;2.3;;;;;;;1.62;86.38281;936.5567;;;;
2023/03/15 06:10:05;;;;;;;5.3;3.6;;;;;;;1.34;87.64453;936.5686;;;;
2023/03/15 06:12:32;;;;;;;6.2;4;;;;;;;1.26;88.12988;936.6467;;;;
2023/03/15 06:14:57;;;;;;;6.6;4;;;;;;;1.31;87.81738;936.6802;;;;
2023/03/15 06:17:23;;;;;;;4.7;3.2;;;;;;;1.44;87.55273;936.721;;;;
2023/03/15 06:23:35;;;;;;;2.7;2.2;;;;;;;1.6;86.5;936.7493;;;;
2023/03/15 06:26:01;;;;;;;5;4.5;;;;;;;1.78;87.11914;936.7011;;;;
2023/03/15 06:28:31;;;;;;;3.3;2.2;;;;;;;1.83;86.60449;936.8056;;;;
2023/03/15 06:30:56;;;;;;;3.5;2;;;;;;;1.81;86.73438;936.8761;;;;
2023/03/15 06:33:23;;;;;;;2.7;1.7;;;;;;;1.89;85.15137;936.7883;;;;
2023/03/15 06:35:47;;;;;;;3.4;1.9;;;;;;;1.86;85.22266;936.9313;;;;
2023/03/15 06:38:14;;;;;;;5.9;3.5;;;;;;;1.91;85.54883;937.0317;;;;
2023/03/15 06:40:39;;;;;;;2.4;2;;;;;;;1.78;86.75195;937.0639;;;;
2023/03/15 06:43:08;;;;;;;2.5;1.7;;;;;;;2.05;86.18066;936.9598;;;;
2023/03/15 06:45:37;;;;;;;2.3;1.9;;;;;;;2.2;84.98926;937.0667;;;;
2023/03/15 06:48:02;;;;;;;2.3;1.7;;;;;;;2.65;83.02832;937.0899;;;;
2023/03/15 06:50:29;;;;;;;3;1.8;;;;;;;2.84;80.97949;937.1091;;;;
2023/03/15 06:52:56;;;;;;;1.7;1.6;;;;;;;2.86;79.45801;937.0939;;;;
2023/03/15 06:55:20;;;;;;;3;2;;;;;;;2.74;79.80566;937.1914;;;;
2023/03/15 06:57:47;;;;;;;5.3;2.3;;;;;;;2.93;80.2998;937.1844;;;;
2023/03/15 07:00:12;;;;;;;5.1;3.1;;;;;;;3.01;79.41699;937.1483;;;;
2023/03/15 07:02:37;;;;;;;6.9;4;;;;;;;3.24;79.47266;937.2589;;;;
2023/03/15 07:05:02;;;;;;;3.9;2.5;;;;;;;3.4;78.72754;937.255;;;;
2023/03/15 07:07:31;;;;;;;5.6;3.2;;;;;;;3.61;77.65625;937.2433;;;;
2023/03/15 07:09:56;;;;;;;2.2;1.9;;;;;;;3.66;76.80859;937.2999;;;;
2023/03/15 07:12:23;;;;;;;3.6;1.5;;;;;;;3.8;76.10352;937.366;;;;
2023/03/15 07:14:51;;;;;;;2.3;1.6;;;;;;;3.33;77.16699;937.2773;;;;
2023/03/15 07:17:16;;;;;;;4;2.3;;;;;;;3.51;77.1084;937.3592;;;;
2023/03/15 07:19:43;;;;;;;3.5;2.5;;;;;;;3.67;76.64355;937.3389;;;;
2023/03/15 07:22:08;;;;;;;3.8;2.2;;;;;;;3.63;76.4668;937.4517;;;;
2023/03/15 07:24:36;;;;;;;3.8;2.1;;;;;;;3.68;76.33008;937.3935;;;;
2023/03/15 07:27:01;;;;;;;4.1;2.7;;;;;;;3.74;76.15039;937.4333;;;;
2023/03/15 07:29:30;;;;;;;10.7;3.9;;;;;;;3.44;79.37695;937.4953;;;;
2023/03/15 07:31:55;;;;;;;5.6;3.5;;;;;;;3.57;78.20801;937.5051;;;;
2023/03/15 07:34:24;;;;;;;3;2.4;;;;;;;3.79;77.49609;937.5255;;;;
2023/03/15 07:36:49;;;;;;;2.9;2;;;;;;;4.03;76.22656;937.4632;;;;
2023/03/15 07:39:18;;;;;;;3.3;1.9;;;;;;;4.98;75.01953;937.6244;;;;
2023/03/15 07:41:43;;;;;;;2.7;1.5;;;;;;;6.62;70.95215;937.5442;;;;
2023/03/15 07:44:09;;;;;;;2.7;1.6;;;;;;;8.06;64.03809;937.5142;;;;
2023/03/15 07:46:34;;;;;;;2.4;1.4;;;;;;;8.07;60.79199;937.5413;;;;
2023/03/15 07:49:01;;;;;;;2.3;1.7;;;;;;;8.93;59.45801;937.5381;;;;
2023/03/15 07:51:26;;;;;;;2.1;1.6;;;;;;;9.62;56.04395;937.545;;;;
2023/03/15 07:53:55;;;;;;;2;1.8;;;;;;;9.87;53.9668;937.4542;;;;
2023/03/15 07:56:20;;;;;;;2;1.5;;;;;;;9.19;54.96387;937.5276;;;;
2023/03/15 07:58:49;;;;;;;3.4;1.8;;;;;;;9.95;54.35352;937.4821;;;;
2023/03/15 08:01:20;;;;;;;2;1.7;;;;;;;11.05;50.52539;937.447;;;;
2023/03/15 08:03:45;;;;;;;2.4;1.9;;;;;;;11.49;49.65039;937.4244;;;;
2023/03/15 08:06:13;;;;;;;2.8;2.1;;;;;;;12.23;49.00195;937.3762;;;;
2023/03/15 08:08:38;;;;;;;5.3;3.4;;;;;;;13.62;45.34082;937.3563;;;;
2023/03/15 08:11:05;;;;;;;3.4;2.1;;;;;;;13.64;44.30762;937.3546;;;;
2023/03/15 08:13:31;;;;;;;4.3;1.9;;;;;;;14.39;41.97656;937.2961;;;;
2023/03/15 08:16:06;;;;;;;2.1;1.5;;;;;;;14.95;40.57715;937.2737;;;;
2023/03/15 08:18:35;;;;;;;1.7;1.5;;;;;;;15.71;38.89063;937.2625;;;;
2023/03/15 08:21:05;;;;;;;3;2;;;;;;;16.68;39.00098;937.2435;;;;
2023/03/15 08:23:36;;;;;;;2.2;1.6;;;;;;;17.53;36.48926;937.2647;;;;
2023/03/15 08:26:02;;;;;;;2.1;1.7;;;;;;;17.81;36.11719;937.2864;;;;
2023/03/15 08:28:27;;;;;;;3.7;1.9;;;;;;;17.59;36.65625;937.2007;;;;
2023/03/15 08:30:52;;;;;;;2.6;1.5;;;;;;;16.49;37.44434;937.1317;;;;
2023/03/15 08:33:21;;;;;;;2.4;1.9;;;;;;;15.31;37.89746;937.1978;;;;
2023/03/15 08:35:45;;;;;;;2.2;1.6;;;;;;;15.53;39.12988;937.1339;;;;
2023/03/15 08:38:13;;;;;;;2.7;1.8;;;;;;;15.85;40.31445;937.0883;;;;
2023/03/15 08:40:39;;;;;;;3.1;1.6;;;;;;;16.15;40.08691;937.0942;;;;
2023/03/15 08:43:06;;;;;;;1.8;1.5;;;;;;;16.33;39.22461;937.0606;;;;
2023/03/15 08:45:31;;;;;;;2;1.8;;;;;;;15.11;39.0918;937.0992;;;;
2023/03/15 08:47:58;;;;;;;3.4;2.3;;;;;;;16.29;37.42676;937.0467;;;;
2023/03/15 08:50:23;;;;;;;2.6;1.7;;;;;;;18.71;32.56152;936.8993;;;;
2023/03/15 08:52:51;;;;;;;3.2;1.9;;;;;;;20.42;31.27441;936.9346;;;;
2023/03/15 08:55:16;;;;;;;2.1;1.2;;;;;;;20.69;28.79297;936.8976;;;;
2023/03/15 08:57:44;;;;;;;2.1;1.5;;;;;;;19.82;31.23242;936.8912;;;;
2023/03/15 09:00:14;;;;;;;1.6;1.3;;;;;;;19.15;31.24316;936.9387;;;;
2023/03/15 09:02:34;;;;;;;1.7;1.3;;;;;;;20.11;29.07129;936.8834;;;;
2023/03/15 09:05:06;;;;;;;1.3;1.2;;;;;;;20.6;27.7832;936.8911;;;;
2023/03/15 09:07:36;;;;;;;1;0.8;;;;;;;18.52;30.20996;936.8257;;;;
2023/03/15 09:10:03;;;;;;;1.4;0.8;;;;;;;19.93;28.06738;936.73;;;;
2023/03/15 09:12:27;;;;;;;0.7;0.7;;;;;;;20;26.13477;936.7296;;;;
2023/03/15 09:14:53;;;;;;;1.4;0.9;;;;;;;18.14;29.58008;936.7547;;;;
2023/03/15 09:17:18;;;;;;;1;0.9;;;;;;;17.21;32.05664;936.7469;;;;
2023/03/15 09:19:43;;;;;;;1.2;0.7;;;;;;;16.55;31.47559;936.6951;;;;
2023/03/15 09:22:11;;;;;;;0.8;0.7;;;;;;;17.47;30.9502;936.7031;;;;
2023/03/15 09:24:37;;;;;;;0.9;0.7;;;;;;;17.72;29.93457;936.6415;;;;
2023/03/15 09:27:02;;;;;;;1.8;0.7;;;;;;;16.84;30.87207;936.7056;;;;
2023/03/15 09:29:28;;;;;;;0.8;0.8;;;;;;;16.35;32.12109;936.7374;;;;
2023/03/15 09:31:53;;;;;;;0.8;0.6;;;;;;;16.28;32.27832;936.7922;;;;
2023/03/15 09:34:20;;;;;;;0.7;0.7;;;;;;;16.15;30.97266;936.6967;;;;
2023/03/15 09:36:51;;;;;;;0.9;0.6;;;;;;;16.42;30.41309;936.7349;;;;
2023/03/15 09:39:10;;;;;;;1.1;1;;;;;;;15.41;31.16309;936.7747;;;;
2023/03/15 09:41:38;;;;;;;0.9;0.8;;;;;;;17.13;31.22852;936.8038;;;;
2023/03/15 09:44:03;;;;;;;1.2;0.7;;;;;;;17.95;30.24121;936.8069;;;;
2023/03/15 09:46:28;;;;;;;0.5;0.5;;;;;;;18;27.33984;936.8091;;;;
2023/03/15 09:48:53;;;;;;;1.5;0.6;;;;;;;17;29.6543;936.8187;;;;
2023/03/15 09:51:18;;;;;;;1;0.3;;;;;;;13.63;28.54199;936.8705;;;;
2023/03/15 09:53:43;;;;;;;0.4;0.3;;;;;;;15.63;31.17871;936.8764;;;;
2023/03/15 09:56:11;;;;;;;1.8;0.5;;;;;;;15.96;31.43359;936.785;;;;
2023/03/15 09:58:36;;;;;;;1;0.4;;;;;;;13.29;29.4375;936.8201;;;;
2023/03/15 10:01:01;;;;;;;1.4;0.8;;;;;;;13.06;37.15137;936.8209;;;;
2023/03/15 10:03:26;;;;;;;1.2;0.5;;;;;;;14.27;35.94238;936.7442;;;;
2023/03/15 10:05:53;;;;;;;0.7;0.7;;;;;;;14.27;36.50586;936.7772;;;;
2023/03/15 10:08:18;;;;;;;0.7;0.7;;;;;;;13.33;35.38184;936.9047;;;;
2023/03/15 10:10:47;;;;;;;0.4;0.4;;;;;;;14.54;34.62793;936.8694;;;;
2023/03/15 10:13:12;;;;;;;0.8;0.6;;;;;;;14.82;32.59668;936.882;;;;
2023/03/15 10:15:41;;;;;;;0.8;0.4;;;;;;;13.16;32.86426;936.8822;;;;
2023/03/15 10:18:07;;;;;;;0.7;0.3;;;;;;;12.8;32.52637;936.9064;;;;
2023/03/15 10:20:34;;;;;;;1.5;1;;;;;;;13.73;35.90918;936.8596;;;;
2023/03/15 10:22:59;;;;;;;1.1;0.4;;;;;;;12.56;33.5293;936.9039;;;;
2023/03/15 10:25:25;;;;;;;1.5;0.4;;;;;;;11.92;37.95898;936.9744;;;;
2023/03/15 10:27:50;;;;;;;3;0.8;;;;;;;12;39.47852;936.9578;;;;
2023/03/15 10:30:15;;;;;;;1;0.6;;;;;;;12.19;39.03711;936.8259;;;;
2023/03/15 10:32:40;;;;;;;0.4;0.4;;;;;;;13.47;38.03809;936.9597;;;;
2023/03/15 10:35:10;;;;;;;0.7;0.7;;;;;;;15.2;33.01758;936.9467;;;;
2023/03/15 10:37:38;;;;;;;1;0.5;;;;;;;15.24;31.94824;936.9185;;;;
2023/03/15 10:40:06;;;;;;;0.5;0.5;;;;;;;14.85;33.44141;936.9178;;;;
2023/03/15 10:42:29;;;;;;;0.9;0.4;;;;;;;16.25;33.30566;936.9052;;;;
2023/03/15 10:44:54;;;;;;;0.5;0.5;;;;;;;16.82;30.38281;936.9044;;;;
2023/03/15 10:47:20;;;;;;;1.4;0.3;;;;;;;16.4;27.95898;936.9238;;;;
2023/03/15 10:49:45;;;;;;;0.3;0.3;;;;;;;16.63;26.74512;936.9402;;;;
2023/03/15 10:52:11;;;;;;;0.8;0.4;;;;;;;16.01;32.55859;936.9891;;;;
2023/03/15 10:54:37;;;;;;;1.7;0.9;;;;;;;15.23;34.21973;937.0086;;;;
2023/03/15 10:57:02;;;;;;;1.3;0.5;;;;;;;14.8;32.89551;936.9925;;;;
2023/03/15 10:59:27;;;;;;;0.9;0.6;;;;;;;14.09;32.96777;937.0928;;;;
2023/03/15 11:01:52;;;;;;;0.4;0.4;;;;;;;11.87;36.47656;937.0748;;;;
2023/03/15 11:04:21;;;;;;;0.4;0.4;;;;;;;12.02;35.14844;937.0986;;;;
2023/03/15 11:06:46;;;;;;;1;0.6;;;;;;;12.42;35.23926;937.1052;;;;
2023/03/15 11:09:13;;;;;;;0.8;0.5;;;;;;;12.13;36.75195;937.0589;;;;
2023/03/15 11:11:39;;;;;;;1.3;0.5;;;;;;;12.29;36.76465;937.0953;;;;
2023/03/15 11:14:04;;;;;;;1.1;0.7;;;;;;;11.06;37.6543;937.0606;;;;
2023/03/15 11:16:34;;;;;;;1.3;0.4;;;;;;;11.91;36.41113;937.0486;;;;
2023/03/15 11:19:00;;;;;;;0.6;0.6;;;;;;;12.79;35.10938;937.0327;;;;
2023/03/15 11:21:27;;;;;;;0.7;0.6;;;;;;;12.37;35.96875;937.0778;;;;
2023/03/15 11:23:52;;;;;;;0.7;0.7;;;;;;;11.77;36.38867;937.1291;;;;
2023/03/15 11:26:17;;;;;;;0.6;0.5;;;;;;;11.74;37.19922;936.9846;;;;
2023/03/15 11:28:44;;;;;;;0.8;0.7;;;;;;;11.88;36.4209;937.0055;;;;
2023/03/15 11:31:14;;;;;;;0.5;0.5;;;;;;;12.69;34.38867;936.9705;;;;
2023/03/15 11:33:39;;;;;;;1.3;0.5;;;;;;;12.4;35.66113;937.0378;;;;
2023/03/15 11:36:04;;;;;;;0.8;0.7;;;;;;;13.68;34.54785;937.0607;;;;
2023/03/15 11:38:32;;;;;;;0.7;0.7;;;;;;;13.57;35.27441;937.0538;;;;
2023/03/15 11:40:55;;;;;;;1.1;0.6;;;;;;;13.53;33.24805;937.0291;;;;
2023/03/15 11:43:21;;;;;;;1;0.8;;;;;;;13.24;32.44434;937.0289;;;;
2023/03/15 11:45:46;;;;;;;0.8;0.5;;;;;;;13.46;33.05859;937.0365;;;;
2023/03/15 11:48:11;;;;;;;0.4;0.4;;;;;;;15.34;28.00684;936.968;;;;
2023/03/15 11:50:36;;;;;;;0.4;0.3;;;;;;;15.6;29.10938;936.9752;;;;
2023/03/15 11:53:05;;;;;;;0.7;0.5;;;;;;;14;28.8877;936.8472;;;;
2023/03/15 11:55:28;;;;;;;1.2;0.5;;;;;;;13.11;31.51563;936.8544;;;;
2023/03/15 11:57:57;;;;;;;0.8;0.5;;;;;;;12.11;31.65039;936.8976;;;;
2023/03/15 12:00:22;;;;;;;0.7;0.6;;;;;;;10.99;36.65527;936.8886;;;;
2023/03/15 12:02:51;;;;;;;0.4;0.4;;;;;;;11.19;35.20801;936.7633;;;;
2023/03/15 12:05:21;;;;;;;1.6;0.6;;;;;;;11.32;35.9043;936.7992;;;;
2023/03/15 12:07:46;;;;;;;0.9;0.7;;;;;;;11.23;34.33008;936.7438;;;;
2023/03/15 12:10:11;;;;;;;0.4;0.4;;;;;;;12.52;33.46875;936.6827;;;;
2023/03/15 12:12:36;;;;;;;1.1;0.4;;;;;;;13.66;31.65918;936.6447;;;;
2023/03/15 12:15:01;;;;;;;0.3;0.3;;;;;;;14.25;28.54688;936.5859;;;;
2023/03/15 12:17:26;;;;;;;0.5;0.4;;;;;;;13.98;29.87598;936.5511;;;;
2023/03/15 12:19:55;;;;;;;1;0.3;;;;;;;14.96;26.95605;936.4846;;;;
2023/03/15 12:22:20;;;;;;;1.7;0.3;;;;;;;17.47;24.54688;936.4969;;;;
2023/03/15 12:24:48;;;;;;;2.8;0.9;;;;;;;18.46;25.82227;936.465;;;;
2023/03/15 12:27:13;;;;;;;0.4;0.3;;;;;;;18.81;23.95898;936.3521;;;;
2023/03/15 12:29:41;;;;;;;1;0.4;;;;;;;21.23;22.27637;936.4484;;;;
2023/03/15 12:32:08;;;;;;;0.6;0.3;;;;;;;18.36;22.0625;936.2389;;;;
2023/03/15 12:34:33;;;;;;;0.4;0.4;;;;;;;12.41;28.94238;936.0317;;;;
2023/03/15 12:37:04;;;;;;;0.8;0.4;;;;;;;11.21;33.23145;936.4903;;;;
2023/03/15 12:39:28;;;;;;;0.9;0.4;;;;;;;10.95;31.72559;936.4503;;;;
2023/03/15 12:41:56;;;;;;;0.6;0.4;;;;;;;11.52;31.25293;936.4629;;;;
2023/03/15 12:44:21;;;;;;;0.4;0.4;;;;;;;11.72;29.98438;936.3983;;;;
2023/03/15 12:46:49;;;;;;;1.1;0.4;;;;;;;12.12;32.60156;936.4578;;;;
2023/03/15 12:49:20;;;;;;;0.6;0.3;;;;;;;13.39;31.2373;936.3295;;;;
2023/03/15 12:51:46;;;;;;;0.3;0.3;;;;;;;12.92;32.30664;936.3558;;;;
2023/03/15 12:54:13;;;;;;;0.4;0.3;;;;;;;12.42;30.93848;936.4264;;;;
2023/03/15 12:56:38;;;;;;;0.5;0.3;;;;;;;12.78;29.75879;936.4214;;;;
2023/03/15 12:59:04;;;;;;;0.7;0.3;;;;;;;12.42;28.39258;936.345;;;;
2023/03/15 13:01:29;;;;;;;0.8;0.5;;;;;;;12.03;29.95996;936.2783;;;;
2023/03/15 13:03:56;;;;;;;0.9;0.5;;;;;;;12.71;28.56055;936.3121;;;;
2023/03/15 13:06:20;;;;;;;0.4;0.4;;;;;;;13.29;27.51855;936.3603;;;;
2023/03/15 13:08:49;;;;;;;1.1;0.5;;;;;;;12.57;28.71289;936.3928;;;;
2023/03/15 13:11:14;;;;;;;0.5;0.4;;;;;;;11.75;29.33398;936.3585;;;;
2023/03/15 13:13:39;;;;;;;0.4;0.4;;;;;;;10.87;31.91406;936.4498;;;;
2023/03/15 13:16:14;;;;;;;0.4;0.4;;;;;;;10.71;29.8916;936.4264;;;;
2023/03/15 13:18:35;;;;;;;0.3;0.3;;;;;;;11.64;30.84863;936.4029;;;;
2023/03/15 13:21:04;;;;;;;0.5;0.4;;;;;;;13.43;26.51563;936.3832;;;;
2023/03/15 13:23:27;;;;;;;0.7;0.4;;;;;;;13.64;26.88574;936.3688;;;;
2023/03/15 13:25:55;;;;;;;0.5;0.3;;;;;;;12.89;26.66797;936.4183;;;;
2023/03/15 13:28:21;;;;;;;0.3;0.3;;;;;;;11.82;27.90723;936.3823;;;;
2023/03/15 13:30:45;;;;;;;0.9;0.4;;;;;;;13.44;28.43652;936.4047;;;;
2023/03/15 13:33:12;;;;;;;1.2;0.5;;;;;;;14.18;26.87305;936.3346;;;;
2023/03/15 13:35:37;;;;;;;0.4;0.3;;;;;;;16.32;25.50098;936.3689;;;;
2023/03/15 13:38:02;;;;;;;0.2;0.2;;;;;;;15.36;26.10254;936.3789;;;;
2023/03/15 13:40:32;;;;;;;0.2;0.2;;;;;;;16.01;23.99121;936.3095;;;;
2023/03/15 13:42:57;;;;;;;0.6;0.3;;;;;;;17.97;23.84277;936.3689;;;;
2023/03/15 13:45:24;;;;;;;0.5;0.2;;;;;;;18.48;22.1377;936.4203;;;;
2023/03/15 13:47:49;;;;;;;0.3;0.3;;;;;;;17.17;22.43164;936.5022;;;;
2023/03/15 13:50:17;;;;;;;0.5;0.2;;;;;;;19.11;20.36523;936.4208;;;;
2023/03/15 13:52:42;;;;;;;0.3;0.2;;;;;;;20.04;20.20898;936.4669;;;;
2023/03/15 13:55:10;;;;;;;0.3;0.3;;;;;;;18.46;21.02148;936.4714;;;;
2023/03/15 13:57:35;;;;;;;0.4;0.3;;;;;;;18.28;20.7793;936.4739;;;;
2023/03/15 14:00:09;;;;;;;0.2;0.2;;;;;;;19.33;20.0957;936.4313;;;;
2023/03/15 14:02:31;;;;;;;0.3;0.3;;;;;;;20.42;20.04004;936.4963;;;;
2023/03/15 14:05:00;;;;;;;1.2;0.8;;;;;;;18.68;22.97363;936.5378;;;;
2023/03/15 14:07:25;;;;;;;0.8;0.5;;;;;;;16.66;23.72559;936.5602;;;;
2023/03/15 14:09:51;;;;;;;0.6;0.4;;;;;;;14.85;25.54199;936.4913;;;;
2023/03/15 14:12:16;;;;;;;2.8;0.4;;;;;;;16.41;23.45801;936.4881;;;;
2023/03/15 14:14:43;;;;;;;0.6;0.5;;;;;;;14.56;24.45313;936.4412;;;;
2023/03/15 14:17:08;;;;;;;0.2;0.2;;;;;;;13.79;24.43262;936.4039;;;;
2023/03/15 14:19:36;;;;;;;0.6;0.3;;;;;;;13.17;25.4209;936.512;;;;
2023/03/15 14:22:01;;;;;;;0.7;0.6;;;;;;;14.02;26.24121;936.5488;;;;
2023/03/15 14:24:27;;;;;;;0.8;0.3;;;;;;;12.72;26.1748;936.6277;;;;
2023/03/15 14:26:52;;;;;;;0.8;0.2;;;;;;;12.1;28.1084;936.6342;;;;
2023/03/15 14:29:17;;;;;;;2;0.4;;;;;;;11.26;29.63184;936.6722;;;;
2023/03/15 14:31:43;;;;;;;0.3;0.2;;;;;;;10.65;31.12109;936.7087;;;;
2023/03/15 14:34:08;;;;;;;1;0.4;;;;;;;9.88;31.76074;936.8325;;;;
2023/03/15 14:36:36;;;;;;;0.7;0.4;;;;;;;9.23;32.60156;936.8135;;;;
2023/03/15 14:39:00;;;;;;;0.4;0.4;;;;;;;8.96;33.70703;936.8167;;;;
2023/03/15 14:41:30;;;;;;;0.4;0.4;;;;;;;8.42;32.82422;936.8308;;;;
2023/03/15 14:43:55;;;;;;;1.4;0.4;;;;;;;8.04;32.89746;936.8486;;;;
2023/03/15 14:46:20;;;;;;;1.4;0.4;;;;;;;7.88;32.89648;936.8558;;;;
2023/03/15 14:48:49;;;;;;;2.6;0.4;;;;;;;7.93;33.78516;936.8923;;;;
2023/03/15 14:51:15;;;;;;;0.9;0.7;;;;;;;8.29;33.92773;936.8942;;;;
2023/03/15 14:53:46;;;;;;;1.9;0.6;;;;;;;8.21;33.5459;936.9698;;;;
2023/03/15 14:56:15;;;;;;;1.1;0.3;;;;;;;7.88;33.66797;936.989;;;;
2023/03/15 14:58:41;;;;;;;1.3;0.6;;;;;;;8.03;34.88281;936.9649;;;;
2023/03/15 15:01:06;;;;;;;0.5;0.4;;;;;;;8.08;35.93066;936.8801;;;;
2023/03/15 15:03:31;;;;;;;0.4;0.4;;;;;;;8.24;34.24121;936.9394;;;;
2023/03/15 15:06:02;;;;;;;0.5;0.3;;;;;;;8.17;33.72461;936.9705;;;;
2023/03/15 15:08:29;;;;;;;1.8;0.5;;;;;;;8.48;35.55566;936.9261;;;;
2023/03/15 15:10:54;;;;;;;1.4;0.5;;;;;;;8.73;35.96289;936.8641;;;;
2023/03/15 15:13:21;;;;;;;1.5;0.7;;;;;;;8.5;35.80664;936.8804;;;;
2023/03/15 15:15:49;;;;;;;2;0.6;;;;;;;8.33;35.10059;936.882;;;;
2023/03/15 15:18:15;;;;;;;0.4;0.4;;;;;;;8.55;34.06055;936.8661;;;;
2023/03/15 15:20:44;;;;;;;2.4;1.2;;;;;;;8.66;37.34473;936.8243;;;;
2023/03/15 15:23:14;;;;;;;1.2;0.6;;;;;;;8.77;35.22754;936.9258;;;;
2023/03/15 15:25:41;;;;;;;1;0.6;;;;;;;8.38;33.93457;936.853;;;;
2023/03/15 15:28:06;;;;;;;1.1;0.7;;;;;;;7.99;34.45898;936.8467;;;;
2023/03/15 15:30:38;;;;;;;0.4;0.4;;;;;;;7.86;35.24316;936.8873;;;;
2023/03/15 15:33:05;;;;;;;0.7;0.5;;;;;;;7.74;35.52832;936.9253;;;;
2023/03/15 15:35:33;;;;;;;1.5;0.6;;;;;;;7.75;35.04199;936.8922;;;;
2023/03/15 15:38:05;;;;;;;0.4;0.3;;;;;;;7.83;36.27344;936.9177;;;;
2023/03/15 15:40:33;;;;;;;1.2;0.8;;;;;;;7.83;37.70313;936.9233;;;;
2023/03/15 15:43:02;;;;;;;2.5;1.1;;;;;;;8.05;35.57715;936.8423;;;;